sensor_id;sensor_type;location;lat;lon;timestamp;P1;durP1;ratioP1;P2;durP2;ratioP2
35488;SDS011;21602;55.670;37.578;2023-05-10T00:01:13;4.60;;;2.58;;
35488;SDS011;21602;55.670;37.578;2023-05-10T00:03:38;5.78;;;2.63;;
35488;SDS011;21602;55.670;37.578;2023-05-10T00:06:05;4.13;;;3.08;;
35488;SDS011;21602;55.670;37.578;2023-05-10T00:08:31;4.32;;;2.22;;
35488;SDS011;21602;55.670;37.578;2023-05-10T00:10:57;7.65;;;2.95;;
35488;SDS011;21602;55.670;37.578;2023-05-10T00:13:22;4.22;;;2.80;;
35488;SDS011;21602;55.670;37.578;2023-05-10T00:15:48;4.40;;;2.47;;
35488;SDS011;21602;55.670;37.578;2023-05-10T00:18:14;4.00;;;2.00;;
35488;SDS011;21602;55.670;37.578;2023-05-10T00:20:40;4.30;;;2.65;;
35488;SDS011;21602;55.670;37.578;2023-05-10T00:23:06;6.88;;;2.35;;
35488;SDS011;21602;55.670;37.578;2023-05-10T00:25:31;4.05;;;2.35;;
35488;SDS011;21602;55.670;37.578;2023-05-10T00:27:57;7.65;;;2.70;;
35488;SDS011;21602;55.670;37.578;2023-05-10T00:30:23;5.82;;;2.65;;
35488;SDS011;21602;55.670;37.578;2023-05-10T00:32:49;4.05;;;2.17;;
35488;SDS011;21602;55.670;37.578;2023-05-10T00:35:17;3.20;;;2.25;;
35488;SDS011;21602;55.670;37.578;2023-05-10T00:37:42;7.05;;;2.67;;
35488;SDS011;21602;55.670;37.578;2023-05-10T00:40:08;3.42;;;2.17;;
35488;SDS011;21602;55.670;37.578;2023-05-10T00:42:34;4.72;;;2.88;;
35488;SDS011;21602;55.670;37.578;2023-05-10T00:45:00;7.30;;;2.40;;
35488;SDS011;21602;55.670;37.578;2023-05-10T00:47:29;4.22;;;2.38;;
35488;SDS011;21602;55.670;37.578;2023-05-10T00:49:55;3.60;;;2.67;;
35488;SDS011;21602;55.670;37.578;2023-05-10T00:52:22;3.50;;;2.10;;
35488;SDS011;21602;55.670;37.578;2023-05-10T00:54:52;6.32;;;2.85;;
35488;SDS011;21602;55.670;37.578;2023-05-10T00:57:18;4.90;;;2.53;;
35488;SDS011;21602;55.670;37.578;2023-05-10T00:59:44;7.75;;;2.38;;
35488;SDS011;21602;55.670;37.578;2023-05-10T01:02:11;6.82;;;2.97;;
35488;SDS011;21602;55.670;37.578;2023-05-10T01:04:38;4.57;;;2.83;;
35488;SDS011;21602;55.670;37.578;2023-05-10T01:07:05;5.50;;;2.30;;
35488;SDS011;21602;55.670;37.578;2023-05-10T01:09:30;5.03;;;2.70;;
35488;SDS011;21602;55.670;37.578;2023-05-10T01:11:58;7.72;;;2.67;;
35488;SDS011;21602;55.670;37.578;2023-05-10T01:14:24;4.07;;;2.17;;
35488;SDS011;21602;55.670;37.578;2023-05-10T01:16:51;4.97;;;2.28;;
35488;SDS011;21602;55.670;37.578;2023-05-10T01:19:20;6.20;;;2.55;;
35488;SDS011;21602;55.670;37.578;2023-05-10T01:24:46;3.28;;;2.40;;
35488;SDS011;21602;55.670;37.578;2023-05-10T01:38:50;4.20;;;2.28;;
35488;SDS011;21602;55.670;37.578;2023-05-10T01:44:09;4.57;;;2.15;;
35488;SDS011;21602;55.670;37.578;2023-05-10T01:46:41;11.00;;;2.95;;
35488;SDS011;21602;55.670;37.578;2023-05-10T01:49:08;5.93;;;2.42;;
35488;SDS011;21602;55.670;37.578;2023-05-10T01:51:44;7.65;;;2.50;;
35488;SDS011;21602;55.670;37.578;2023-05-10T01:54:14;4.32;;;1.90;;
35488;SDS011;21602;55.670;37.578;2023-05-10T01:56:44;3.67;;;2.30;;
35488;SDS011;21602;55.670;37.578;2023-05-10T01:59:25;5.60;;;2.80;;
35488;SDS011;21602;55.670;37.578;2023-05-10T02:01:55;3.30;;;2.58;;
35488;SDS011;21602;55.670;37.578;2023-05-10T02:04:25;8.02;;;2.90;;
35488;SDS011;21602;55.670;37.578;2023-05-10T02:06:52;3.95;;;2.03;;
35488;SDS011;21602;55.670;37.578;2023-05-10T02:09:22;6.60;;;2.33;;
35488;SDS011;21602;55.670;37.578;2023-05-10T02:11:50;3.47;;;2.33;;
35488;SDS011;21602;55.670;37.578;2023-05-10T02:14:18;3.78;;;1.85;;
35488;SDS011;21602;55.670;37.578;2023-05-10T02:16:45;6.47;;;2.30;;
35488;SDS011;21602;55.670;37.578;2023-05-10T02:19:12;2.78;;;1.80;;
35488;SDS011;21602;55.670;37.578;2023-05-10T02:22:00;3.80;;;2.45;;
35488;SDS011;21602;55.670;37.578;2023-05-10T02:24:27;4.82;;;2.00;;
35488;SDS011;21602;55.670;37.578;2023-05-10T02:26:54;7.75;;;2.20;;
35488;SDS011;21602;55.670;37.578;2023-05-10T02:29:22;5.75;;;2.45;;
35488;SDS011;21602;55.670;37.578;2023-05-10T02:34:17;2.90;;;1.63;;
35488;SDS011;21602;55.670;37.578;2023-05-10T02:36:45;3.33;;;2.00;;
35488;SDS011;21602;55.670;37.578;2023-05-10T02:39:11;5.40;;;2.25;;
35488;SDS011;21602;55.670;37.578;2023-05-10T02:41:40;3.38;;;2.17;;
35488;SDS011;21602;55.670;37.578;2023-05-10T02:44:07;5.60;;;1.80;;
35488;SDS011;21602;55.670;37.578;2023-05-10T02:46:35;3.65;;;1.80;;
35488;SDS011;21602;55.670;37.578;2023-05-10T02:49:02;3.78;;;1.63;;
35488;SDS011;21602;55.670;37.578;2023-05-10T02:51:30;5.07;;;2.05;;
35488;SDS011;21602;55.670;37.578;2023-05-10T02:54:00;2.70;;;1.92;;
35488;SDS011;21602;55.670;37.578;2023-05-10T02:56:35;3.50;;;1.50;;
35488;SDS011;21602;55.670;37.578;2023-05-10T02:59:06;5.82;;;1.77;;
35488;SDS011;21602;55.670;37.578;2023-05-10T03:01:32;3.38;;;1.40;;
35488;SDS011;21602;55.670;37.578;2023-05-10T03:03:58;3.90;;;1.55;;
35488;SDS011;21602;55.670;37.578;2023-05-10T03:06:23;8.65;;;2.28;;
35488;SDS011;21602;55.670;37.578;2023-05-10T03:08:49;2.38;;;1.40;;
35488;SDS011;21602;55.670;37.578;2023-05-10T03:17:01;4.18;;;2.33;;
35488;SDS011;21602;55.670;37.578;2023-05-10T03:19:47;3.38;;;1.83;;
35488;SDS011;21602;55.670;37.578;2023-05-10T03:22:30;4.28;;;2.03;;
35488;SDS011;21602;55.670;37.578;2023-05-10T03:25:00;3.63;;;1.58;;
35488;SDS011;21602;55.670;37.578;2023-05-10T03:27:36;3.03;;;1.73;;
35488;SDS011;21602;55.670;37.578;2023-05-10T03:30:04;3.67;;;1.73;;
35488;SDS011;21602;55.670;37.578;2023-05-10T03:32:33;3.30;;;1.67;;
35488;SDS011;21602;55.670;37.578;2023-05-10T03:35:00;4.65;;;1.70;;
35488;SDS011;21602;55.670;37.578;2023-05-10T03:37:29;4.50;;;1.98;;
35488;SDS011;21602;55.670;37.578;2023-05-10T03:39:55;6.20;;;1.70;;
35488;SDS011;21602;55.670;37.578;2023-05-10T03:42:21;3.63;;;1.80;;
35488;SDS011;21602;55.670;37.578;2023-05-10T03:44:46;7.15;;;1.95;;
35488;SDS011;21602;55.670;37.578;2023-05-10T03:47:14;2.90;;;1.57;;
35488;SDS011;21602;55.670;37.578;2023-05-10T03:49:40;5.25;;;1.80;;
35488;SDS011;21602;55.670;37.578;2023-05-10T03:52:06;5.07;;;2.45;;
35488;SDS011;21602;55.670;37.578;2023-05-10T03:54:32;4.18;;;1.77;;
35488;SDS011;21602;55.670;37.578;2023-05-10T03:56:58;3.13;;;1.67;;
35488;SDS011;21602;55.670;37.578;2023-05-10T03:59:26;5.18;;;1.70;;
35488;SDS011;21602;55.670;37.578;2023-05-10T04:01:51;2.40;;;1.45;;
35488;SDS011;21602;55.670;37.578;2023-05-10T04:04:17;3.17;;;1.40;;
35488;SDS011;21602;55.670;37.578;2023-05-10T04:06:44;4.60;;;2.00;;
35488;SDS011;21602;55.670;37.578;2023-05-10T04:09:10;4.68;;;1.63;;
35488;SDS011;21602;55.670;37.578;2023-05-10T04:11:38;5.30;;;1.70;;
35488;SDS011;21602;55.670;37.578;2023-05-10T04:14:04;3.75;;;1.42;;
35488;SDS011;21602;55.670;37.578;2023-05-10T04:16:29;4.90;;;1.52;;
35488;SDS011;21602;55.670;37.578;2023-05-10T04:18:55;6.63;;;1.50;;
35488;SDS011;21602;55.670;37.578;2023-05-10T04:21:21;5.45;;;1.75;;
35488;SDS011;21602;55.670;37.578;2023-05-10T04:23:47;4.68;;;1.70;;
35488;SDS011;21602;55.670;37.578;2023-05-10T04:26:13;2.88;;;1.88;;
35488;SDS011;21602;55.670;37.578;2023-05-10T04:28:39;7.45;;;1.83;;
35488;SDS011;21602;55.670;37.578;2023-05-10T04:31:06;3.20;;;1.70;;
35488;SDS011;21602;55.670;37.578;2023-05-10T04:33:33;2.67;;;1.60;;
35488;SDS011;21602;55.670;37.578;2023-05-10T04:35:59;5.57;;;1.85;;
35488;SDS011;21602;55.670;37.578;2023-05-10T04:38:26;4.40;;;1.83;;
35488;SDS011;21602;55.670;37.578;2023-05-10T04:40:52;4.75;;;1.85;;
35488;SDS011;21602;55.670;37.578;2023-05-10T04:43:18;8.55;;;1.98;;
35488;SDS011;21602;55.670;37.578;2023-05-10T04:45:44;4.00;;;2.05;;
35488;SDS011;21602;55.670;37.578;2023-05-10T04:48:10;3.90;;;1.60;;
35488;SDS011;21602;55.670;37.578;2023-05-10T04:50:36;3.13;;;1.50;;
35488;SDS011;21602;55.670;37.578;2023-05-10T04:53:02;4.32;;;2.08;;
35488;SDS011;21602;55.670;37.578;2023-05-10T04:55:28;3.33;;;1.83;;
35488;SDS011;21602;55.670;37.578;2023-05-10T04:57:54;3.05;;;1.73;;
35488;SDS011;21602;55.670;37.578;2023-05-10T05:00:24;5.72;;;1.73;;
35488;SDS011;21602;55.670;37.578;2023-05-10T05:02:50;3.63;;;1.65;;
35488;SDS011;21602;55.670;37.578;2023-05-10T05:05:16;4.80;;;2.22;;
35488;SDS011;21602;55.670;37.578;2023-05-10T05:07:45;6.32;;;1.77;;
35488;SDS011;21602;55.670;37.578;2023-05-10T05:10:11;7.72;;;1.92;;
35488;SDS011;21602;55.670;37.578;2023-05-10T05:12:37;6.80;;;1.73;;
35488;SDS011;21602;55.670;37.578;2023-05-10T05:15:02;7.22;;;1.75;;
35488;SDS011;21602;55.670;37.578;2023-05-10T05:17:30;6.03;;;1.73;;
35488;SDS011;21602;55.670;37.578;2023-05-10T05:19:56;7.20;;;2.10;;
35488;SDS011;21602;55.670;37.578;2023-05-10T05:22:22;5.05;;;2.17;;
35488;SDS011;21602;55.670;37.578;2023-05-10T05:24:56;8.02;;;2.03;;
35488;SDS011;21602;55.670;37.578;2023-05-10T05:27:24;8.50;;;2.17;;
35488;SDS011;21602;55.670;37.578;2023-05-10T05:29:57;4.72;;;1.98;;
35488;SDS011;21602;55.670;37.578;2023-05-10T05:32:24;9.25;;;1.77;;
35488;SDS011;21602;55.670;37.578;2023-05-10T05:34:50;8.27;;;1.90;;
35488;SDS011;21602;55.670;37.578;2023-05-10T05:37:17;6.85;;;1.95;;
35488;SDS011;21602;55.670;37.578;2023-05-10T05:39:45;5.53;;;1.75;;
35488;SDS011;21602;55.670;37.578;2023-05-10T05:42:11;5.25;;;1.92;;
35488;SDS011;21602;55.670;37.578;2023-05-10T05:44:39;9.60;;;2.15;;
35488;SDS011;21602;55.670;37.578;2023-05-10T05:47:06;8.48;;;2.15;;
35488;SDS011;21602;55.670;37.578;2023-05-10T05:49:32;7.15;;;1.83;;
35488;SDS011;21602;55.670;37.578;2023-05-10T05:51:59;8.60;;;2.05;;
35488;SDS011;21602;55.670;37.578;2023-05-10T05:54:29;4.47;;;2.95;;
35488;SDS011;21602;55.670;37.578;2023-05-10T05:56:59;6.65;;;2.00;;
35488;SDS011;21602;55.670;37.578;2023-05-10T05:59:26;8.85;;;1.98;;
35488;SDS011;21602;55.670;37.578;2023-05-10T06:01:52;7.40;;;1.98;;
35488;SDS011;21602;55.670;37.578;2023-05-10T06:04:18;9.57;;;2.80;;
35488;SDS011;21602;55.670;37.578;2023-05-10T06:06:44;8.93;;;2.10;;
35488;SDS011;21602;55.670;37.578;2023-05-10T06:09:13;14.52;;;2.30;;
35488;SDS011;21602;55.670;37.578;2023-05-10T06:11:38;3.50;;;1.92;;
35488;SDS011;21602;55.670;37.578;2023-05-10T06:14:04;8.15;;;2.05;;
35488;SDS011;21602;55.670;37.578;2023-05-10T06:16:32;10.25;;;1.90;;
35488;SDS011;21602;55.670;37.578;2023-05-10T06:18:59;4.20;;;1.88;;
35488;SDS011;21602;55.670;37.578;2023-05-10T06:21:25;6.93;;;2.25;;
35488;SDS011;21602;55.670;37.578;2023-05-10T06:23:51;6.53;;;1.63;;
35488;SDS011;21602;55.670;37.578;2023-05-10T06:26:17;12.40;;;1.73;;
35488;SDS011;21602;55.670;37.578;2023-05-10T06:28:43;9.18;;;1.70;;
35488;SDS011;21602;55.670;37.578;2023-05-10T06:31:08;4.35;;;2.22;;
35488;SDS011;21602;55.670;37.578;2023-05-10T06:33:36;13.15;;;2.33;;
35488;SDS011;21602;55.670;37.578;2023-05-10T06:36:02;5.82;;;2.13;;
35488;SDS011;21602;55.670;37.578;2023-05-10T06:38:28;7.70;;;1.80;;
35488;SDS011;21602;55.670;37.578;2023-05-10T06:40:54;9.30;;;2.08;;
35488;SDS011;21602;55.670;37.578;2023-05-10T06:43:20;8.50;;;1.85;;
35488;SDS011;21602;55.670;37.578;2023-05-10T06:48:38;3.25;;;1.42;;
35488;SDS011;21602;55.670;37.578;2023-05-10T06:51:04;4.75;;;1.70;;
35488;SDS011;21602;55.670;37.578;2023-05-10T06:53:30;10.70;;;2.28;;
35488;SDS011;21602;55.670;37.578;2023-05-10T06:55:56;4.15;;;1.95;;
35488;SDS011;21602;55.670;37.578;2023-05-10T06:58:21;5.57;;;1.90;;
35488;SDS011;21602;55.670;37.578;2023-05-10T07:00:47;8.63;;;1.60;;
35488;SDS011;21602;55.670;37.578;2023-05-10T07:03:13;4.15;;;1.67;;
35488;SDS011;21602;55.670;37.578;2023-05-10T07:05:39;4.32;;;1.33;;
35488;SDS011;21602;55.670;37.578;2023-05-10T07:08:05;5.28;;;1.73;;
35488;SDS011;21602;55.670;37.578;2023-05-10T07:10:31;12.55;;;1.95;;
35488;SDS011;21602;55.670;37.578;2023-05-10T07:12:57;10.07;;;2.13;;
35488;SDS011;21602;55.670;37.578;2023-05-10T07:15:23;5.55;;;1.73;;
35488;SDS011;21602;55.670;37.578;2023-05-10T07:17:48;4.00;;;1.45;;
35488;SDS011;21602;55.670;37.578;2023-05-10T07:20:14;6.05;;;1.73;;
35488;SDS011;21602;55.670;37.578;2023-05-10T07:22:40;2.90;;;1.38;;
35488;SDS011;21602;55.670;37.578;2023-05-10T07:25:06;3.20;;;1.15;;
35488;SDS011;21602;55.670;37.578;2023-05-10T07:27:33;5.72;;;1.55;;
35488;SDS011;21602;55.670;37.578;2023-05-10T07:29:59;2.90;;;1.27;;
35488;SDS011;21602;55.670;37.578;2023-05-10T07:32:26;8.10;;;1.60;;
35488;SDS011;21602;55.670;37.578;2023-05-10T07:34:52;4.90;;;1.42;;
35488;SDS011;21602;55.670;37.578;2023-05-10T07:37:17;5.65;;;1.30;;
35488;SDS011;21602;55.670;37.578;2023-05-10T07:39:43;5.50;;;1.70;;
35488;SDS011;21602;55.670;37.578;2023-05-10T07:42:09;3.13;;;1.65;;
35488;SDS011;21602;55.670;37.578;2023-05-10T07:44:35;2.20;;;1.77;;
35488;SDS011;21602;55.670;37.578;2023-05-10T07:47:01;7.28;;;2.03;;
35488;SDS011;21602;55.670;37.578;2023-05-10T07:49:27;2.78;;;1.23;;
35488;SDS011;21602;55.670;37.578;2023-05-10T07:51:53;7.50;;;1.48;;
35488;SDS011;21602;55.670;37.578;2023-05-10T07:54:19;2.33;;;1.50;;
35488;SDS011;21602;55.670;37.578;2023-05-10T07:56:45;6.38;;;2.00;;
35488;SDS011;21602;55.670;37.578;2023-05-10T07:59:16;2.15;;;1.33;;
35488;SDS011;21602;55.670;37.578;2023-05-10T08:01:43;3.65;;;1.73;;
35488;SDS011;21602;55.670;37.578;2023-05-10T08:04:10;2.92;;;1.33;;
35488;SDS011;21602;55.670;37.578;2023-05-10T08:06:37;4.68;;;1.60;;
35488;SDS011;21602;55.670;37.578;2023-05-10T08:09:03;1.70;;;1.55;;
35488;SDS011;21602;55.670;37.578;2023-05-10T08:11:29;4.15;;;1.63;;
35488;SDS011;21602;55.670;37.578;2023-05-10T08:13:55;4.97;;;1.60;;
35488;SDS011;21602;55.670;37.578;2023-05-10T08:16:21;2.40;;;2.10;;
35488;SDS011;21602;55.670;37.578;2023-05-10T08:18:47;3.47;;;1.23;;
35488;SDS011;21602;55.670;37.578;2023-05-10T08:21:14;2.27;;;1.17;;
35488;SDS011;21602;55.670;37.578;2023-05-10T08:23:40;1.80;;;1.30;;
35488;SDS011;21602;55.670;37.578;2023-05-10T08:26:06;3.17;;;1.05;;
35488;SDS011;21602;55.670;37.578;2023-05-10T08:28:32;2.30;;;1.35;;
35488;SDS011;21602;55.670;37.578;2023-05-10T08:30:58;2.47;;;1.35;;
35488;SDS011;21602;55.670;37.578;2023-05-10T08:33:24;5.00;;;1.20;;
35488;SDS011;21602;55.670;37.578;2023-05-10T08:35:50;2.45;;;0.80;;
35488;SDS011;21602;55.670;37.578;2023-05-10T08:38:17;4.32;;;1.27;;
35488;SDS011;21602;55.670;37.578;2023-05-10T08:40:43;1.95;;;1.30;;
35488;SDS011;21602;55.670;37.578;2023-05-10T08:43:11;1.93;;;1.30;;
35488;SDS011;21602;55.670;37.578;2023-05-10T08:45:40;4.00;;;1.30;;
35488;SDS011;21602;55.670;37.578;2023-05-10T08:48:08;4.28;;;1.00;;
35488;SDS011;21602;55.670;37.578;2023-05-10T08:50:36;3.70;;;1.20;;
35488;SDS011;21602;55.670;37.578;2023-05-10T08:53:06;4.90;;;1.40;;
35488;SDS011;21602;55.670;37.578;2023-05-10T08:55:36;5.82;;;1.35;;
35488;SDS011;21602;55.670;37.578;2023-05-10T08:58:04;7.15;;;1.60;;
35488;SDS011;21602;55.670;37.578;2023-05-10T09:00:30;2.30;;;1.15;;
35488;SDS011;21602;55.670;37.578;2023-05-10T09:02:57;2.83;;;1.20;;
35488;SDS011;21602;55.670;37.578;2023-05-10T09:05:24;1.88;;;0.88;;
35488;SDS011;21602;55.670;37.578;2023-05-10T09:07:50;0.98;;;0.82;;
35488;SDS011;21602;55.670;37.578;2023-05-10T09:10:16;1.40;;;0.88;;
35488;SDS011;21602;55.670;37.578;2023-05-10T09:12:43;1.25;;;0.88;;
35488;SDS011;21602;55.670;37.578;2023-05-10T09:15:10;5.82;;;1.50;;
35488;SDS011;21602;55.670;37.578;2023-05-10T09:17:39;0.70;;;0.50;;
35488;SDS011;21602;55.670;37.578;2023-05-10T09:20:06;1.45;;;0.80;;
35488;SDS011;21602;55.670;37.578;2023-05-10T09:22:33;6.75;;;1.40;;
35488;SDS011;21602;55.670;37.578;2023-05-10T09:25:06;3.53;;;0.90;;
35488;SDS011;21602;55.670;37.578;2023-05-10T09:27:33;2.40;;;0.88;;
35488;SDS011;21602;55.670;37.578;2023-05-10T09:30:00;2.20;;;0.90;;
35488;SDS011;21602;55.670;37.578;2023-05-10T09:35:11;6.65;;;1.25;;
35488;SDS011;21602;55.670;37.578;2023-05-10T09:37:39;4.85;;;1.17;;
35488;SDS011;21602;55.670;37.578;2023-05-10T09:40:12;8.98;;;1.73;;
35488;SDS011;21602;55.670;37.578;2023-05-10T09:42:39;2.85;;;1.27;;
35488;SDS011;21602;55.670;37.578;2023-05-10T09:45:07;6.78;;;1.20;;
35488;SDS011;21602;55.670;37.578;2023-05-10T09:47:34;2.70;;;1.73;;
35488;SDS011;21602;55.670;37.578;2023-05-10T09:50:02;6.60;;;1.65;;
35488;SDS011;21602;55.670;37.578;2023-05-10T09:52:31;3.17;;;1.40;;
35488;SDS011;21602;55.670;37.578;2023-05-10T09:55:22;6.05;;;1.50;;
35488;SDS011;21602;55.670;37.578;2023-05-10T09:57:49;4.88;;;1.38;;
35488;SDS011;21602;55.670;37.578;2023-05-10T10:00:25;3.22;;;1.30;;
35488;SDS011;21602;55.670;37.578;2023-05-10T10:02:56;6.25;;;2.08;;
35488;SDS011;21602;55.670;37.578;2023-05-10T10:08:00;6.47;;;2.30;;
35488;SDS011;21602;55.670;37.578;2023-05-10T10:12:54;6.95;;;1.55;;
35488;SDS011;21602;55.670;37.578;2023-05-10T10:15:20;8.35;;;1.60;;
35488;SDS011;21602;55.670;37.578;2023-05-10T10:17:47;2.80;;;1.50;;
35488;SDS011;21602;55.670;37.578;2023-05-10T10:20:15;3.53;;;1.98;;
35488;SDS011;21602;55.670;37.578;2023-05-10T10:22:41;3.05;;;1.63;;
35488;SDS011;21602;55.670;37.578;2023-05-10T10:25:10;2.90;;;1.65;;
35488;SDS011;21602;55.670;37.578;2023-05-10T10:27:43;3.90;;;1.85;;
35488;SDS011;21602;55.670;37.578;2023-05-10T10:35:39;3.25;;;1.50;;
35488;SDS011;21602;55.670;37.578;2023-05-10T10:38:07;6.43;;;1.60;;
35488;SDS011;21602;55.670;37.578;2023-05-10T10:40:33;6.07;;;1.50;;
35488;SDS011;21602;55.670;37.578;2023-05-10T10:43:21;3.80;;;1.70;;
35488;SDS011;21602;55.670;37.578;2023-05-10T10:48:39;3.20;;;1.70;;
35488;SDS011;21602;55.670;37.578;2023-05-10T10:51:06;4.30;;;2.35;;
35488;SDS011;21602;55.670;37.578;2023-05-10T10:53:32;5.57;;;2.40;;
35488;SDS011;21602;55.670;37.578;2023-05-10T10:56:05;5.32;;;1.60;;
35488;SDS011;21602;55.670;37.578;2023-05-10T10:58:35;4.57;;;1.80;;
35488;SDS011;21602;55.670;37.578;2023-05-10T11:01:17;5.10;;;2.00;;
35488;SDS011;21602;55.670;37.578;2023-05-10T11:06:32;4.82;;;2.00;;
35488;SDS011;21602;55.670;37.578;2023-05-10T11:09:12;3.17;;;1.58;;
35488;SDS011;21602;55.670;37.578;2023-05-10T11:11:51;1.98;;;1.40;;
35488;SDS011;21602;55.670;37.578;2023-05-10T11:14:20;7.25;;;1.60;;
35488;SDS011;21602;55.670;37.578;2023-05-10T11:16:50;3.75;;;1.42;;
35488;SDS011;21602;55.670;37.578;2023-05-10T11:19:16;1.80;;;1.30;;
35488;SDS011;21602;55.670;37.578;2023-05-10T11:24:17;2.38;;;1.60;;
35488;SDS011;21602;55.670;37.578;2023-05-10T11:26:49;6.03;;;1.90;;
35488;SDS011;21602;55.670;37.578;2023-05-10T11:29:16;3.15;;;1.92;;
35488;SDS011;21602;55.670;37.578;2023-05-10T11:31:46;5.22;;;2.00;;
35488;SDS011;21602;55.670;37.578;2023-05-10T11:34:29;3.42;;;1.33;;
35488;SDS011;21602;55.670;37.578;2023-05-10T11:36:56;5.40;;;1.85;;
35488;SDS011;21602;55.670;37.578;2023-05-10T11:39:26;1.88;;;1.20;;
35488;SDS011;21602;55.670;37.578;2023-05-10T11:41:53;2.97;;;1.58;;
35488;SDS011;21602;55.670;37.578;2023-05-10T11:44:20;6.30;;;1.77;;
35488;SDS011;21602;55.670;37.578;2023-05-10T11:46:46;7.47;;;1.58;;
35488;SDS011;21602;55.670;37.578;2023-05-10T11:49:12;2.53;;;1.45;;
35488;SDS011;21602;55.670;37.578;2023-05-10T11:51:38;4.18;;;2.38;;
35488;SDS011;21602;55.670;37.578;2023-05-10T11:54:06;5.72;;;1.58;;
35488;SDS011;21602;55.670;37.578;2023-05-10T11:56:36;2.85;;;1.65;;
35488;SDS011;21602;55.670;37.578;2023-05-10T11:59:03;2.50;;;1.30;;
35488;SDS011;21602;55.670;37.578;2023-05-10T12:01:33;2.75;;;1.67;;
35488;SDS011;21602;55.670;37.578;2023-05-10T12:04:05;2.20;;;1.40;;
35488;SDS011;21602;55.670;37.578;2023-05-10T12:06:31;5.78;;;1.63;;
35488;SDS011;21602;55.670;37.578;2023-05-10T12:09:05;6.07;;;2.08;;
35488;SDS011;21602;55.670;37.578;2023-05-10T12:11:32;4.53;;;1.70;;
35488;SDS011;21602;55.670;37.578;2023-05-10T12:14:04;7.50;;;2.25;;
35488;SDS011;21602;55.670;37.578;2023-05-10T12:16:31;2.95;;;1.55;;
35488;SDS011;21602;55.670;37.578;2023-05-10T12:18:57;3.85;;;1.40;;
35488;SDS011;21602;55.670;37.578;2023-05-10T12:21:25;4.45;;;1.60;;
35488;SDS011;21602;55.670;37.578;2023-05-10T12:23:53;4.35;;;1.48;;
35488;SDS011;21602;55.670;37.578;2023-05-10T12:26:24;3.33;;;1.50;;
35488;SDS011;21602;55.670;37.578;2023-05-10T12:28:55;2.72;;;1.27;;
35488;SDS011;21602;55.670;37.578;2023-05-10T12:31:58;4.28;;;1.98;;
35488;SDS011;21602;55.670;37.578;2023-05-10T12:34:26;9.85;;;2.70;;
35488;SDS011;21602;55.670;37.578;2023-05-10T12:36:56;2.47;;;1.40;;
35488;SDS011;21602;55.670;37.578;2023-05-10T12:39:22;3.38;;;1.55;;
35488;SDS011;21602;55.670;37.578;2023-05-10T12:41:48;4.20;;;1.50;;
35488;SDS011;21602;55.670;37.578;2023-05-10T12:44:14;5.30;;;2.28;;
35488;SDS011;21602;55.670;37.578;2023-05-10T12:46:40;3.90;;;1.63;;
35488;SDS011;21602;55.670;37.578;2023-05-10T12:49:06;6.18;;;1.52;;
35488;SDS011;21602;55.670;37.578;2023-05-10T12:51:31;4.13;;;1.42;;
35488;SDS011;21602;55.670;37.578;2023-05-10T12:53:57;7.60;;;2.17;;
35488;SDS011;21602;55.670;37.578;2023-05-10T12:56:32;8.23;;;1.70;;
35488;SDS011;21602;55.670;37.578;2023-05-10T12:58:58;3.90;;;1.50;;
35488;SDS011;21602;55.670;37.578;2023-05-10T13:01:24;5.68;;;1.80;;
35488;SDS011;21602;55.670;37.578;2023-05-10T13:03:50;2.22;;;1.38;;
35488;SDS011;21602;55.670;37.578;2023-05-10T13:06:16;8.95;;;1.77;;
35488;SDS011;21602;55.670;37.578;2023-05-10T13:08:42;3.72;;;1.50;;
35488;SDS011;21602;55.670;37.578;2023-05-10T13:11:08;7.45;;;1.88;;
35488;SDS011;21602;55.670;37.578;2023-05-10T13:13:34;6.75;;;1.90;;
35488;SDS011;21602;55.670;37.578;2023-05-10T13:16:00;5.35;;;1.83;;
35488;SDS011;21602;55.670;37.578;2023-05-10T13:18:26;3.92;;;1.70;;
35488;SDS011;21602;55.670;37.578;2023-05-10T13:20:51;9.73;;;1.40;;
35488;SDS011;21602;55.670;37.578;2023-05-10T13:23:19;6.90;;;1.83;;
35488;SDS011;21602;55.670;37.578;2023-05-10T13:25:45;3.67;;;1.30;;
35488;SDS011;21602;55.670;37.578;2023-05-10T13:28:11;2.70;;;1.15;;
35488;SDS011;21602;55.670;37.578;2023-05-10T13:30:38;2.45;;;1.50;;
35488;SDS011;21602;55.670;37.578;2023-05-10T13:33:04;3.92;;;1.67;;
35488;SDS011;21602;55.670;37.578;2023-05-10T13:35:30;2.20;;;1.20;;
35488;SDS011;21602;55.670;37.578;2023-05-10T13:37:56;7.85;;;1.60;;
35488;SDS011;21602;55.670;37.578;2023-05-10T13:40:25;2.00;;;1.45;;
35488;SDS011;21602;55.670;37.578;2023-05-10T13:42:51;4.78;;;1.83;;
35488;SDS011;21602;55.670;37.578;2023-05-10T13:45:18;3.63;;;1.58;;
35488;SDS011;21602;55.670;37.578;2023-05-10T13:47:44;3.63;;;2.00;;
35488;SDS011;21602;55.670;37.578;2023-05-10T13:50:10;4.80;;;1.80;;
35488;SDS011;21602;55.670;37.578;2023-05-10T13:52:36;3.10;;;1.30;;
35488;SDS011;21602;55.670;37.578;2023-05-10T13:55:01;4.10;;;1.50;;
35488;SDS011;21602;55.670;37.578;2023-05-10T13:57:34;4.88;;;1.80;;
35488;SDS011;21602;55.670;37.578;2023-05-10T14:00:05;4.97;;;1.30;;
35488;SDS011;21602;55.670;37.578;2023-05-10T14:02:34;5.90;;;1.83;;
35488;SDS011;21602;55.670;37.578;2023-05-10T14:05:00;4.60;;;1.42;;
35488;SDS011;21602;55.670;37.578;2023-05-10T14:07:25;7.30;;;1.60;;
35488;SDS011;21602;55.670;37.578;2023-05-10T14:09:51;3.63;;;1.38;;
35488;SDS011;21602;55.670;37.578;2023-05-10T14:12:17;11.10;;;2.05;;
35488;SDS011;21602;55.670;37.578;2023-05-10T14:14:43;4.07;;;1.58;;
35488;SDS011;21602;55.670;37.578;2023-05-10T14:17:09;5.22;;;1.70;;
35488;SDS011;21602;55.670;37.578;2023-05-10T14:19:35;4.13;;;1.40;;
35488;SDS011;21602;55.670;37.578;2023-05-10T14:22:01;2.40;;;1.60;;
35488;SDS011;21602;55.670;37.578;2023-05-10T14:24:27;8.75;;;2.03;;
35488;SDS011;21602;55.670;37.578;2023-05-10T14:26:53;6.45;;;1.60;;
35488;SDS011;21602;55.670;37.578;2023-05-10T14:29:20;4.80;;;1.75;;
35488;SDS011;21602;55.670;37.578;2023-05-10T14:31:46;2.70;;;1.25;;
35488;SDS011;21602;55.670;37.578;2023-05-10T14:34:15;6.28;;;1.73;;
35488;SDS011;21602;55.670;37.578;2023-05-10T14:36:43;2.95;;;1.27;;
35488;SDS011;21602;55.670;37.578;2023-05-10T14:39:15;2.75;;;1.30;;
35488;SDS011;21602;55.670;37.578;2023-05-10T14:41:44;4.25;;;1.60;;
35488;SDS011;21602;55.670;37.578;2023-05-10T14:44:13;2.92;;;1.20;;
35488;SDS011;21602;55.670;37.578;2023-05-10T14:46:40;6.63;;;1.45;;
35488;SDS011;21602;55.670;37.578;2023-05-10T14:49:07;2.60;;;1.85;;
35488;SDS011;21602;55.670;37.578;2023-05-10T14:51:33;5.22;;;1.50;;
35488;SDS011;21602;55.670;37.578;2023-05-10T14:54:00;6.25;;;1.42;;
35488;SDS011;21602;55.670;37.578;2023-05-10T14:56:28;3.15;;;1.30;;
35488;SDS011;21602;55.670;37.578;2023-05-10T14:59:04;4.07;;;1.85;;
35488;SDS011;21602;55.670;37.578;2023-05-10T15:01:29;4.38;;;1.55;;
35488;SDS011;21602;55.670;37.578;2023-05-10T15:03:58;3.90;;;1.63;;
35488;SDS011;21602;55.670;37.578;2023-05-10T15:06:33;7.32;;;1.52;;
35488;SDS011;21602;55.670;37.578;2023-05-10T15:09:01;4.82;;;1.42;;
35488;SDS011;21602;55.670;37.578;2023-05-10T15:11:28;9.63;;;1.52;;
35488;SDS011;21602;55.670;37.578;2023-05-10T15:13:55;2.92;;;1.67;;
35488;SDS011;21602;55.670;37.578;2023-05-10T15:16:24;25.77;;;2.05;;
35488;SDS011;21602;55.670;37.578;2023-05-10T15:18:50;12.93;;;2.25;;
35488;SDS011;21602;55.670;37.578;2023-05-10T15:21:16;19.92;;;2.90;;
35488;SDS011;21602;55.670;37.578;2023-05-10T15:23:42;18.60;;;2.05;;
35488;SDS011;21602;55.670;37.578;2023-05-10T15:26:08;6.10;;;1.70;;